sensor_id;sensor_type;location;lat;lon;timestamp;P1;durP1;ratioP1;P2;durP2;ratioP2
3755;SDS011;1893;52.526;13.360;2024-02-04T00:01:40;9.90;;;2.27;;
3755;SDS011;1893;52.526;13.360;2024-02-04T00:04:05;3.20;;;1.77;;
3755;SDS011;1893;52.526;13.360;2024-02-04T00:06:31;11.60;;;2.63;;
3755;SDS011;1893;52.526;13.360;2024-02-04T00:08:56;10.20;;;2.33;;
3755;SDS011;1893;52.526;13.360;2024-02-04T00:11:22;11.20;;;2.10;;
3755;SDS011;1893;52.526;13.360;2024-02-04T00:13:48;5.50;;;2.50;;
3755;SDS011;1893;52.526;13.360;2024-02-04T00:16:14;7.37;;;2.50;;
3755;SDS011;1893;52.526;13.360;2024-02-04T00:18:39;12.23;;;2.40;;
3755;SDS011;1893;52.526;13.360;2024-02-04T00:21:05;8.27;;;2.23;;
3755;SDS011;1893;52.526;13.360;2024-02-04T00:23:31;16.57;;;2.40;;
3755;SDS011;1893;52.526;13.360;2024-02-04T00:25:56;16.40;;;2.87;;
3755;SDS011;1893;52.526;13.360;2024-02-04T00:28:22;6.70;;;2.20;;
3755;SDS011;1893;52.526;13.360;2024-02-04T00:30:47;8.03;;;1.73;;
3755;SDS011;1893;52.526;13.360;2024-02-04T00:33:19;11.63;;;2.53;;
3755;SDS011;1893;52.526;13.360;2024-02-04T00:35:45;10.87;;;2.07;;
3755;SDS011;1893;52.526;13.360;2024-02-04T00:38:11;4.70;;;1.67;;
3755;SDS011;1893;52.526;13.360;2024-02-04T00:40:37;8.20;;;1.90;;
3755;SDS011;1893;52.526;13.360;2024-02-04T00:43:02;7.03;;;2.60;;
3755;SDS011;1893;52.526;13.360;2024-02-04T00:45:28;6.83;;;2.23;;
3755;SDS011;1893;52.526;13.360;2024-02-04T00:47:54;10.90;;;1.70;;
3755;SDS011;1893;52.526;13.360;2024-02-04T00:50:19;12.50;;;2.80;;
3755;SDS011;1893;52.526;13.360;2024-02-04T00:52:45;20.63;;;3.93;;
3755;SDS011;1893;52.526;13.360;2024-02-04T00:55:10;6.63;;;2.27;;
3755;SDS011;1893;52.526;13.360;2024-02-04T00:57:36;7.57;;;1.93;;
3755;SDS011;1893;52.526;13.360;2024-02-04T01:00:02;6.93;;;2.50;;
3755;SDS011;1893;52.526;13.360;2024-02-04T01:02:28;16.30;;;2.50;;
3755;SDS011;1893;52.526;13.360;2024-02-04T01:04:54;7.77;;;2.07;;
3755;SDS011;1893;52.526;13.360;2024-02-04T01:07:20;12.43;;;2.70;;
3755;SDS011;1893;52.526;13.360;2024-02-04T01:09:45;10.90;;;2.20;;
3755;SDS011;1893;52.526;13.360;2024-02-04T01:12:11;16.03;;;2.73;;
3755;SDS011;1893;52.526;13.360;2024-02-04T01:14:37;15.90;;;1.90;;
3755;SDS011;1893;52.526;13.360;2024-02-04T01:17:02;13.83;;;3.03;;
3755;SDS011;1893;52.526;13.360;2024-02-04T01:19:28;12.70;;;2.50;;
3755;SDS011;1893;52.526;13.360;2024-02-04T01:21:54;6.13;;;2.03;;
3755;SDS011;1893;52.526;13.360;2024-02-04T01:24:19;11.30;;;2.90;;
3755;SDS011;1893;52.526;13.360;2024-02-04T01:26:45;10.40;;;2.53;;
3755;SDS011;1893;52.526;13.360;2024-02-04T01:29:10;13.77;;;3.20;;
3755;SDS011;1893;52.526;13.360;2024-02-04T01:31:36;12.20;;;2.50;;
3755;SDS011;1893;52.526;13.360;2024-02-04T01:34:02;8.87;;;2.50;;
3755;SDS011;1893;52.526;13.360;2024-02-04T01:36:27;9.20;;;3.80;;
3755;SDS011;1893;52.526;13.360;2024-02-04T01:38:53;11.50;;;2.13;;
3755;SDS011;1893;52.526;13.360;2024-02-04T01:41:19;9.10;;;3.43;;
3755;SDS011;1893;52.526;13.360;2024-02-04T01:43:44;16.57;;;2.30;;
3755;SDS011;1893;52.526;13.360;2024-02-04T01:46:11;7.90;;;2.37;;
3755;SDS011;1893;52.526;13.360;2024-02-04T01:48:36;14.40;;;2.30;;
3755;SDS011;1893;52.526;13.360;2024-02-04T01:51:02;13.13;;;2.93;;
3755;SDS011;1893;52.526;13.360;2024-02-04T01:53:29;8.93;;;2.10;;
3755;SDS011;1893;52.526;13.360;2024-02-04T01:55:57;16.23;;;2.77;;
3755;SDS011;1893;52.526;13.360;2024-02-04T01:58:24;12.17;;;2.43;;
3755;SDS011;1893;52.526;13.360;2024-02-04T02:00:49;11.70;;;2.27;;
3755;SDS011;1893;52.526;13.360;2024-02-04T02:03:16;11.37;;;4.13;;
3755;SDS011;1893;52.526;13.360;2024-02-04T02:05:42;11.37;;;3.50;;
3755;SDS011;1893;52.526;13.360;2024-02-04T02:08:07;11.90;;;2.10;;
3755;SDS011;1893;52.526;13.360;2024-02-04T02:10:34;10.83;;;2.50;;
3755;SDS011;1893;52.526;13.360;2024-02-04T02:13:01;10.40;;;2.27;;
3755;SDS011;1893;52.526;13.360;2024-02-04T02:15:39;14.73;;;3.40;;
3755;SDS011;1893;52.526;13.360;2024-02-04T02:18:18;13.27;;;3.07;;
3755;SDS011;1893;52.526;13.360;2024-02-04T02:21:16;7.30;;;1.70;;
3755;SDS011;1893;52.526;13.360;2024-02-04T02:26:29;10.27;;;2.43;;
3755;SDS011;1893;52.526;13.360;2024-02-04T02:28:59;9.83;;;2.33;;
3755;SDS011;1893;52.526;13.360;2024-02-04T02:31:24;14.20;;;2.90;;
3755;SDS011;1893;52.526;13.360;2024-02-04T02:33:50;14.30;;;1.60;;
3755;SDS011;1893;52.526;13.360;2024-02-04T02:36:17;14.63;;;2.37;;
3755;SDS011;1893;52.526;13.360;2024-02-04T02:38:51;14.57;;;3.30;;
3755;SDS011;1893;52.526;13.360;2024-02-04T02:41:24;9.47;;;2.13;;
3755;SDS011;1893;52.526;13.360;2024-02-04T02:43:54;9.70;;;2.50;;
3755;SDS011;1893;52.526;13.360;2024-02-04T02:46:21;9.60;;;2.20;;
3755;SDS011;1893;52.526;13.360;2024-02-04T02:48:48;10.40;;;1.80;;
3755;SDS011;1893;52.526;13.360;2024-02-04T02:51:14;13.30;;;2.57;;
3755;SDS011;1893;52.526;13.360;2024-02-04T02:53:41;6.70;;;1.80;;
3755;SDS011;1893;52.526;13.360;2024-02-04T02:56:06;5.97;;;2.20;;
3755;SDS011;1893;52.526;13.360;2024-02-04T02:58:32;6.30;;;1.70;;
3755;SDS011;1893;52.526;13.360;2024-02-04T03:00:58;5.87;;;2.43;;
3755;SDS011;1893;52.526;13.360;2024-02-04T03:03:23;16.60;;;2.57;;
3755;SDS011;1893;52.526;13.360;2024-02-04T03:05:49;13.20;;;2.07;;
3755;SDS011;1893;52.526;13.360;2024-02-04T03:08:15;15.93;;;2.60;;
3755;SDS011;1893;52.526;13.360;2024-02-04T03:10:40;10.10;;;1.83;;
3755;SDS011;1893;52.526;13.360;2024-02-04T03:13:06;8.40;;;2.50;;
3755;SDS011;1893;52.526;13.360;2024-02-04T03:15:31;7.63;;;2.90;;
3755;SDS011;1893;52.526;13.360;2024-02-04T03:17:57;9.57;;;2.27;;
3755;SDS011;1893;52.526;13.360;2024-02-04T03:20:23;5.33;;;2.60;;
3755;SDS011;1893;52.526;13.360;2024-02-04T03:22:48;9.00;;;2.30;;
3755;SDS011;1893;52.526;13.360;2024-02-04T03:25:14;11.50;;;2.50;;
3755;SDS011;1893;52.526;13.360;2024-02-04T03:27:40;5.43;;;2.03;;
3755;SDS011;1893;52.526;13.360;2024-02-04T03:30:05;7.20;;;2.10;;
3755;SDS011;1893;52.526;13.360;2024-02-04T03:32:31;7.83;;;2.97;;
3755;SDS011;1893;52.526;13.360;2024-02-04T03:35:02;16.60;;;2.97;;
3755;SDS011;1893;52.526;13.360;2024-02-04T03:37:28;12.03;;;3.13;;
3755;SDS011;1893;52.526;13.360;2024-02-04T03:39:54;11.17;;;2.50;;
3755;SDS011;1893;52.526;13.360;2024-02-04T03:42:19;8.37;;;2.60;;
3755;SDS011;1893;52.526;13.360;2024-02-04T03:44:47;5.53;;;2.53;;
3755;SDS011;1893;52.526;13.360;2024-02-04T03:47:13;9.80;;;2.90;;
3755;SDS011;1893;52.526;13.360;2024-02-04T03:49:39;7.80;;;3.03;;
3755;SDS011;1893;52.526;13.360;2024-02-04T03:52:05;11.50;;;2.90;;
3755;SDS011;1893;52.526;13.360;2024-02-04T03:54:30;6.70;;;2.73;;
3755;SDS011;1893;52.526;13.360;2024-02-04T03:56:56;5.33;;;1.90;;
3755;SDS011;1893;52.526;13.360;2024-02-04T03:59:22;5.53;;;2.50;;
3755;SDS011;1893;52.526;13.360;2024-02-04T04:01:48;16.10;;;2.63;;
3755;SDS011;1893;52.526;13.360;2024-02-04T04:04:14;9.60;;;2.60;;
3755;SDS011;1893;52.526;13.360;2024-02-04T04:06:40;12.77;;;3.43;;
3755;SDS011;1893;52.526;13.360;2024-02-04T04:09:07;9.80;;;2.90;;
3755;SDS011;1893;52.526;13.360;2024-02-04T04:11:32;12.33;;;2.10;;
3755;SDS011;1893;52.526;13.360;2024-02-04T04:13:58;5.40;;;2.50;;
3755;SDS011;1893;52.526;13.360;2024-02-04T04:16:24;9.07;;;2.87;;
3755;SDS011;1893;52.526;13.360;2024-02-04T04:18:49;6.47;;;2.57;;
3755;SDS011;1893;52.526;13.360;2024-02-04T04:21:15;13.13;;;2.23;;
3755;SDS011;1893;52.526;13.360;2024-02-04T04:23:41;6.77;;;3.33;;
3755;SDS011;1893;52.526;13.360;2024-02-04T04:26:06;11.27;;;2.90;;
3755;SDS011;1893;52.526;13.360;2024-02-04T04:28:32;4.43;;;2.03;;
3755;SDS011;1893;52.526;13.360;2024-02-04T04:30:58;10.27;;;2.97;;
3755;SDS011;1893;52.526;13.360;2024-02-04T04:33:23;11.73;;;2.73;;
3755;SDS011;1893;52.526;13.360;2024-02-04T04:35:49;13.20;;;3.60;;
3755;SDS011;1893;52.526;13.360;2024-02-04T04:38:14;6.10;;;2.67;;
3755;SDS011;1893;52.526;13.360;2024-02-04T04:40:40;4.87;;;2.33;;
3755;SDS011;1893;52.526;13.360;2024-02-04T04:43:06;9.00;;;2.40;;
3755;SDS011;1893;52.526;13.360;2024-02-04T04:45:32;15.90;;;2.27;;
3755;SDS011;1893;52.526;13.360;2024-02-04T04:47:57;6.37;;;2.17;;
3755;SDS011;1893;52.526;13.360;2024-02-04T04:50:23;8.37;;;2.57;;
3755;SDS011;1893;52.526;13.360;2024-02-04T04:52:49;7.53;;;1.93;;
3755;SDS011;1893;52.526;13.360;2024-02-04T04:55:14;5.73;;;2.03;;
3755;SDS011;1893;52.526;13.360;2024-02-04T04:57:40;4.10;;;1.67;;
3755;SDS011;1893;52.526;13.360;2024-02-04T05:00:06;5.77;;;1.37;;
3755;SDS011;1893;52.526;13.360;2024-02-04T05:02:34;2.73;;;2.03;;
3755;SDS011;1893;52.526;13.360;2024-02-04T05:05:00;10.93;;;2.57;;
3755;SDS011;1893;52.526;13.360;2024-02-04T05:07:26;7.17;;;2.10;;
3755;SDS011;1893;52.526;13.360;2024-02-04T05:09:52;8.40;;;1.70;;
3755;SDS011;1893;52.526;13.360;2024-02-04T05:12:18;4.60;;;1.80;;
3755;SDS011;1893;52.526;13.360;2024-02-04T05:14:43;5.20;;;1.53;;
3755;SDS011;1893;52.526;13.360;2024-02-04T05:17:09;6.87;;;2.23;;
3755;SDS011;1893;52.526;13.360;2024-02-04T05:19:35;7.83;;;2.10;;
3755;SDS011;1893;52.526;13.360;2024-02-04T05:22:01;4.70;;;2.10;;
3755;SDS011;1893;52.526;13.360;2024-02-04T05:24:27;5.20;;;1.80;;
3755;SDS011;1893;52.526;13.360;2024-02-04T05:26:53;9.13;;;2.13;;
3755;SDS011;1893;52.526;13.360;2024-02-04T05:29:19;7.80;;;2.07;;
3755;SDS011;1893;52.526;13.360;2024-02-04T05:31:44;4.70;;;2.00;;
3755;SDS011;1893;52.526;13.360;2024-02-04T05:34:10;7.93;;;2.57;;
3755;SDS011;1893;52.526;13.360;2024-02-04T05:36:36;10.10;;;2.60;;
3755;SDS011;1893;52.526;13.360;2024-02-04T05:39:09;10.80;;;1.40;;
3755;SDS011;1893;52.526;13.360;2024-02-04T05:41:39;10.70;;;1.90;;
3755;SDS011;1893;52.526;13.360;2024-02-04T05:44:05;7.83;;;3.47;;
3755;SDS011;1893;52.526;13.360;2024-02-04T05:46:31;10.70;;;2.10;;
3755;SDS011;1893;52.526;13.360;2024-02-04T05:48:57;4.90;;;2.00;;
3755;SDS011;1893;52.526;13.360;2024-02-04T05:51:23;7.37;;;2.03;;
3755;SDS011;1893;52.526;13.360;2024-02-04T05:53:49;4.17;;;1.43;;
3755;SDS011;1893;52.526;13.360;2024-02-04T05:56:14;7.70;;;1.90;;
3755;SDS011;1893;52.526;13.360;2024-02-04T05:58:40;4.20;;;1.40;;
3755;SDS011;1893;52.526;13.360;2024-02-04T06:01:05;4.10;;;1.87;;
3755;SDS011;1893;52.526;13.360;2024-02-04T06:03:31;11.27;;;3.00;;
3755;SDS011;1893;52.526;13.360;2024-02-04T06:05:56;8.13;;;2.53;;
3755;SDS011;1893;52.526;13.360;2024-02-04T06:08:22;2.50;;;1.53;;
3755;SDS011;1893;52.526;13.360;2024-02-04T06:10:48;4.53;;;2.07;;
3755;SDS011;1893;52.526;13.360;2024-02-04T06:13:14;6.33;;;2.37;;
3755;SDS011;1893;52.526;13.360;2024-02-04T06:15:39;8.73;;;2.53;;
3755;SDS011;1893;52.526;13.360;2024-02-04T06:18:05;9.60;;;2.70;;
3755;SDS011;1893;52.526;13.360;2024-02-04T06:20:31;7.17;;;2.17;;
3755;SDS011;1893;52.526;13.360;2024-02-04T06:22:56;6.17;;;2.20;;
3755;SDS011;1893;52.526;13.360;2024-02-04T06:25:26;6.53;;;2.60;;
3755;SDS011;1893;52.526;13.360;2024-02-04T06:27:51;4.23;;;2.73;;
3755;SDS011;1893;52.526;13.360;2024-02-04T06:30:17;3.90;;;2.30;;
3755;SDS011;1893;52.526;13.360;2024-02-04T06:32:42;8.87;;;2.90;;
3755;SDS011;1893;52.526;13.360;2024-02-04T06:35:08;5.20;;;2.07;;
3755;SDS011;1893;52.526;13.360;2024-02-04T06:37:34;3.87;;;2.37;;
3755;SDS011;1893;52.526;13.360;2024-02-04T06:39:59;7.20;;;2.50;;
3755;SDS011;1893;52.526;13.360;2024-02-04T06:42:25;7.13;;;3.13;;
3755;SDS011;1893;52.526;13.360;2024-02-04T06:44:50;5.47;;;2.97;;
3755;SDS011;1893;52.526;13.360;2024-02-04T06:47:16;8.80;;;3.00;;
3755;SDS011;1893;52.526;13.360;2024-02-04T06:49:45;9.67;;;3.60;;
3755;SDS011;1893;52.526;13.360;2024-02-04T06:52:10;10.70;;;4.23;;
3755;SDS011;1893;52.526;13.360;2024-02-04T06:54:36;7.70;;;3.10;;
3755;SDS011;1893;52.526;13.360;2024-02-04T06:57:02;12.13;;;5.20;;
3755;SDS011;1893;52.526;13.360;2024-02-04T06:59:27;11.03;;;3.70;;
3755;SDS011;1893;52.526;13.360;2024-02-04T07:01:53;15.77;;;4.43;;
3755;SDS011;1893;52.526;13.360;2024-02-04T07:04:19;6.40;;;3.83;;
3755;SDS011;1893;52.526;13.360;2024-02-04T07:06:47;10.07;;;3.50;;
3755;SDS011;1893;52.526;13.360;2024-02-04T07:09:12;8.80;;;4.13;;
3755;SDS011;1893;52.526;13.360;2024-02-04T07:11:38;15.70;;;4.80;;
3755;SDS011;1893;52.526;13.360;2024-02-04T07:14:04;8.40;;;3.60;;
3755;SDS011;1893;52.526;13.360;2024-02-04T07:16:31;8.60;;;3.10;;
3755;SDS011;1893;52.526;13.360;2024-02-04T07:18:57;13.20;;;4.37;;
3755;SDS011;1893;52.526;13.360;2024-02-04T07:21:22;8.67;;;4.50;;
3755;SDS011;1893;52.526;13.360;2024-02-04T07:23:48;10.73;;;5.17;;
3755;SDS011;1893;52.526;13.360;2024-02-04T07:26:13;12.47;;;3.77;;
3755;SDS011;1893;52.526;13.360;2024-02-04T07:28:39;6.67;;;4.20;;
3755;SDS011;1893;52.526;13.360;2024-02-04T07:31:05;8.70;;;4.33;;
3755;SDS011;1893;52.526;13.360;2024-02-04T07:33:30;8.43;;;4.77;;
3755;SDS011;1893;52.526;13.360;2024-02-04T07:35:56;7.37;;;3.90;;
3755;SDS011;1893;52.526;13.360;2024-02-04T07:38:21;9.60;;;4.10;;
3755;SDS011;1893;52.526;13.360;2024-02-04T07:40:47;6.30;;;4.33;;
3755;SDS011;1893;52.526;13.360;2024-02-04T07:43:13;11.80;;;4.63;;
3755;SDS011;1893;52.526;13.360;2024-02-04T07:45:38;10.37;;;4.57;;
3755;SDS011;1893;52.526;13.360;2024-02-04T07:48:04;8.57;;;4.63;;
3755;SDS011;1893;52.526;13.360;2024-02-04T07:50:30;14.17;;;4.23;;
3755;SDS011;1893;52.526;13.360;2024-02-04T07:52:55;12.00;;;4.70;;
3755;SDS011;1893;52.526;13.360;2024-02-04T07:55:21;8.13;;;4.90;;
3755;SDS011;1893;52.526;13.360;2024-02-04T07:57:47;7.57;;;4.40;;
3755;SDS011;1893;52.526;13.360;2024-02-04T08:00:12;8.63;;;4.43;;
3755;SDS011;1893;52.526;13.360;2024-02-04T08:02:38;16.17;;;4.60;;
3755;SDS011;1893;52.526;13.360;2024-02-04T08:05:04;13.60;;;3.93;;
3755;SDS011;1893;52.526;13.360;2024-02-04T08:07:30;12.77;;;4.80;;
3755;SDS011;1893;52.526;13.360;2024-02-04T08:09:56;15.83;;;5.57;;
3755;SDS011;1893;52.526;13.360;2024-02-04T08:12:22;10.47;;;4.30;;
3755;SDS011;1893;52.526;13.360;2024-02-04T08:14:48;7.67;;;3.50;;
3755;SDS011;1893;52.526;13.360;2024-02-04T08:17:14;7.30;;;3.93;;
3755;SDS011;1893;52.526;13.360;2024-02-04T08:19:40;11.87;;;4.60;;
3755;SDS011;1893;52.526;13.360;2024-02-04T08:22:06;12.30;;;4.40;;
3755;SDS011;1893;52.526;13.360;2024-02-04T08:24:32;10.93;;;3.50;;
3755;SDS011;1893;52.526;13.360;2024-02-04T08:26:58;14.13;;;4.07;;
3755;SDS011;1893;52.526;13.360;2024-02-04T08:29:24;9.60;;;3.47;;
3755;SDS011;1893;52.526;13.360;2024-02-04T08:31:51;9.40;;;4.43;;
3755;SDS011;1893;52.526;13.360;2024-02-04T08:34:17;9.10;;;4.73;;
3755;SDS011;1893;52.526;13.360;2024-02-04T08:36:45;5.90;;;2.80;;
3755;SDS011;1893;52.526;13.360;2024-02-04T08:39:11;8.87;;;3.50;;
3755;SDS011;1893;52.526;13.360;2024-02-04T08:41:36;7.07;;;2.73;;
3755;SDS011;1893;52.526;13.360;2024-02-04T08:44:02;8.47;;;3.17;;
3755;SDS011;1893;52.526;13.360;2024-02-04T08:46:28;10.83;;;2.60;;
3755;SDS011;1893;52.526;13.360;2024-02-04T08:48:53;14.10;;;5.00;;
3755;SDS011;1893;52.526;13.360;2024-02-04T08:51:19;6.80;;;2.60;;
3755;SDS011;1893;52.526;13.360;2024-02-04T08:53:44;5.30;;;2.63;;
3755;SDS011;1893;52.526;13.360;2024-02-04T08:56:10;5.67;;;2.80;;
3755;SDS011;1893;52.526;13.360;2024-02-04T08:58:36;13.17;;;2.60;;
3755;SDS011;1893;52.526;13.360;2024-02-04T09:01:05;9.47;;;3.73;;
3755;SDS011;1893;52.526;13.360;2024-02-04T09:03:31;8.13;;;2.40;;
3755;SDS011;1893;52.526;13.360;2024-02-04T09:05:58;12.33;;;2.80;;
3755;SDS011;1893;52.526;13.360;2024-02-04T09:08:23;7.63;;;2.33;;
3755;SDS011;1893;52.526;13.360;2024-02-04T09:10:49;9.33;;;2.90;;
3755;SDS011;1893;52.526;13.360;2024-02-04T09:13:16;10.20;;;2.20;;
3755;SDS011;1893;52.526;13.360;2024-02-04T09:15:41;4.40;;;2.03;;
3755;SDS011;1893;52.526;13.360;2024-02-04T09:18:07;4.30;;;2.40;;
3755;SDS011;1893;52.526;13.360;2024-02-04T09:20:32;7.47;;;2.37;;
3755;SDS011;1893;52.526;13.360;2024-02-04T09:22:58;6.27;;;2.47;;
3755;SDS011;1893;52.526;13.360;2024-02-04T09:25:27;5.60;;;2.27;;
3755;SDS011;1893;52.526;13.360;2024-02-04T09:27:52;7.93;;;2.60;;
3755;SDS011;1893;52.526;13.360;2024-02-04T09:30:18;12.10;;;2.73;;
3755;SDS011;1893;52.526;13.360;2024-02-04T09:32:43;6.63;;;1.87;;
3755;SDS011;1893;52.526;13.360;2024-02-04T09:35:09;10.13;;;2.20;;
3755;SDS011;1893;52.526;13.360;2024-02-04T09:37:35;7.90;;;2.53;;
3755;SDS011;1893;52.526;13.360;2024-02-04T09:40:01;12.33;;;1.90;;
3755;SDS011;1893;52.526;13.360;2024-02-04T09:42:29;6.97;;;1.83;;
3755;SDS011;1893;52.526;13.360;2024-02-04T09:45:25;6.70;;;1.50;;
3755;SDS011;1893;52.526;13.360;2024-02-04T09:47:51;9.33;;;1.70;;
3755;SDS011;1893;52.526;13.360;2024-02-04T09:50:20;6.90;;;1.83;;
3755;SDS011;1893;52.526;13.360;2024-02-04T09:52:48;6.60;;;1.87;;
3755;SDS011;1893;52.526;13.360;2024-02-04T09:55:17;6.50;;;2.20;;
3755;SDS011;1893;52.526;13.360;2024-02-04T09:57:48;6.10;;;1.70;;
3755;SDS011;1893;52.526;13.360;2024-02-04T10:00:14;4.60;;;1.77;;
3755;SDS011;1893;52.526;13.360;2024-02-04T10:02:43;5.63;;;1.50;;
3755;SDS011;1893;52.526;13.360;2024-02-04T10:05:09;12.53;;;2.40;;
3755;SDS011;1893;52.526;13.360;2024-02-04T10:07:35;5.80;;;1.67;;
3755;SDS011;1893;52.526;13.360;2024-02-04T10:10:01;7.03;;;1.20;;
3755;SDS011;1893;52.526;13.360;2024-02-04T10:12:27;4.07;;;1.20;;
3755;SDS011;1893;52.526;13.360;2024-02-04T10:14:53;8.50;;;1.50;;
3755;SDS011;1893;52.526;13.360;2024-02-04T10:17:18;6.80;;;1.30;;
3755;SDS011;1893;52.526;13.360;2024-02-04T10:19:47;2.47;;;1.07;;
3755;SDS011;1893;52.526;13.360;2024-02-04T10:22:14;5.10;;;1.10;;
3755;SDS011;1893;52.526;13.360;2024-02-04T10:24:41;11.53;;;1.50;;
3755;SDS011;1893;52.526;13.360;2024-02-04T10:27:07;4.23;;;1.20;;
3755;SDS011;1893;52.526;13.360;2024-02-04T10:29:35;3.93;;;1.40;;
3755;SDS011;1893;52.526;13.360;2024-02-04T10:32:01;3.60;;;1.40;;
3755;SDS011;1893;52.526;13.360;2024-02-04T10:34:27;3.80;;;1.57;;
3755;SDS011;1893;52.526;13.360;2024-02-04T10:36:55;4.80;;;1.13;;
3755;SDS011;1893;52.526;13.360;2024-02-04T10:39:21;2.73;;;1.00;;
3755;SDS011;1893;52.526;13.360;2024-02-04T10:41:51;3.33;;;1.20;;
3755;SDS011;1893;52.526;13.360;2024-02-04T10:44:18;7.70;;;1.17;;
3755;SDS011;1893;52.526;13.360;2024-02-04T10:46:46;5.70;;;1.53;;
3755;SDS011;1893;52.526;13.360;2024-02-04T10:49:13;4.87;;;1.00;;
3755;SDS011;1893;52.526;13.360;2024-02-04T10:51:41;8.47;;;1.77;;
3755;SDS011;1893;52.526;13.360;2024-02-04T10:54:07;10.20;;;1.30;;
3755;SDS011;1893;52.526;13.360;2024-02-04T10:59:07;3.27;;;1.43;;
3755;SDS011;1893;52.526;13.360;2024-02-04T11:01:34;3.23;;;1.47;;
3755;SDS011;1893;52.526;13.360;2024-02-04T11:04:02;4.50;;;1.57;;
3755;SDS011;1893;52.526;13.360;2024-02-04T11:06:29;4.10;;;1.10;;
3755;SDS011;1893;52.526;13.360;2024-02-04T11:08:55;4.30;;;1.50;;
3755;SDS011;1893;52.526;13.360;2024-02-04T11:11:23;4.43;;;1.10;;
3755;SDS011;1893;52.526;13.360;2024-02-04T11:13:52;4.27;;;1.50;;
3755;SDS011;1893;52.526;13.360;2024-02-04T11:22:16;6.07;;;1.63;;
3755;SDS011;1893;52.526;13.360;2024-02-04T11:27:32;9.37;;;1.77;;
3755;SDS011;1893;52.526;13.360;2024-02-04T11:29:58;5.13;;;1.70;;
3755;SDS011;1893;52.526;13.360;2024-02-04T11:32:24;6.07;;;1.73;;
3755;SDS011;1893;52.526;13.360;2024-02-04T11:34:50;5.20;;;1.63;;
3755;SDS011;1893;52.526;13.360;2024-02-04T11:37:19;3.50;;;1.57;;
3755;SDS011;1893;52.526;13.360;2024-02-04T11:39:52;6.50;;;1.53;;
3755;SDS011;1893;52.526;13.360;2024-02-04T11:42:18;4.57;;;1.50;;
3755;SDS011;1893;52.526;13.360;2024-02-04T11:44:45;7.00;;;1.63;;
3755;SDS011;1893;52.526;13.360;2024-02-04T11:47:11;4.40;;;1.67;;
3755;SDS011;1893;52.526;13.360;2024-02-04T11:49:53;4.33;;;1.50;;
3755;SDS011;1893;52.526;13.360;2024-02-04T11:52:20;11.87;;;1.43;;
3755;SDS011;1893;52.526;13.360;2024-02-04T11:54:46;5.30;;;1.30;;
3755;SDS011;1893;52.526;13.360;2024-02-04T11:57:12;4.50;;;1.30;;
3755;SDS011;1893;52.526;13.360;2024-02-04T11:59:39;5.27;;;1.40;;
3755;SDS011;1893;52.526;13.360;2024-02-04T12:02:07;8.77;;;1.53;;
3755;SDS011;1893;52.526;13.360;2024-02-04T12:04:33;3.63;;;1.10;;
3755;SDS011;1893;52.526;13.360;2024-02-04T12:06:59;3.73;;;1.40;;
3755;SDS011;1893;52.526;13.360;2024-02-04T12:09:26;5.20;;;1.10;;
3755;SDS011;1893;52.526;13.360;2024-02-04T12:11:53;2.70;;;1.20;;
3755;SDS011;1893;52.526;13.360;2024-02-04T12:14:19;4.63;;;1.37;;
3755;SDS011;1893;52.526;13.360;2024-02-04T12:16:46;7.50;;;1.27;;
3755;SDS011;1893;52.526;13.360;2024-02-04T12:19:11;2.30;;;1.60;;
3755;SDS011;1893;52.526;13.360;2024-02-04T12:21:37;2.33;;;1.10;;
3755;SDS011;1893;52.526;13.360;2024-02-04T12:24:03;5.23;;;1.30;;
3755;SDS011;1893;52.526;13.360;2024-02-04T12:26:29;6.13;;;1.20;;
3755;SDS011;1893;52.526;13.360;2024-02-04T12:28:55;8.10;;;1.87;;
3755;SDS011;1893;52.526;13.360;2024-02-04T12:31:24;3.83;;;1.63;;
3755;SDS011;1893;52.526;13.360;2024-02-04T12:33:54;6.47;;;1.40;;
3755;SDS011;1893;52.526;13.360;2024-02-04T12:36:23;3.87;;;1.47;;
3755;SDS011;1893;52.526;13.360;2024-02-04T12:38:51;2.23;;;1.20;;
3755;SDS011;1893;52.526;13.360;2024-02-04T12:41:21;4.53;;;1.20;;
3755;SDS011;1893;52.526;13.360;2024-02-04T12:43:51;3.27;;;1.70;;
3755;SDS011;1893;52.526;13.360;2024-02-04T12:46:18;6.87;;;1.57;;
3755;SDS011;1893;52.526;13.360;2024-02-04T12:48:45;5.90;;;1.70;;
3755;SDS011;1893;52.526;13.360;2024-02-04T12:51:31;9.63;;;1.70;;
3755;SDS011;1893;52.526;13.360;2024-02-04T12:54:10;4.33;;;1.40;;
3755;SDS011;1893;52.526;13.360;2024-02-04T13:01:54;5.07;;;1.57;;
3755;SDS011;1893;52.526;13.360;2024-02-04T13:04:21;3.40;;;1.40;;
3755;SDS011;1893;52.526;13.360;2024-02-04T13:06:47;3.77;;;1.40;;
3755;SDS011;1893;52.526;13.360;2024-02-04T13:09:16;4.63;;;1.20;;
3755;SDS011;1893;52.526;13.360;2024-02-04T13:11:42;7.40;;;1.80;;
3755;SDS011;1893;52.526;13.360;2024-02-04T13:14:08;5.10;;;1.20;;
3755;SDS011;1893;52.526;13.360;2024-02-04T13:16:34;5.33;;;1.63;;
3755;SDS011;1893;52.526;13.360;2024-02-04T13:19:03;6.60;;;1.67;;
3755;SDS011;1893;52.526;13.360;2024-02-04T13:21:29;4.67;;;1.10;;
3755;SDS011;1893;52.526;13.360;2024-02-04T13:23:55;3.60;;;1.60;;
3755;SDS011;1893;52.526;13.360;2024-02-04T13:26:20;9.73;;;1.80;;
3755;SDS011;1893;52.526;13.360;2024-02-04T13:28:46;5.23;;;1.73;;
3755;SDS011;1893;52.526;13.360;2024-02-04T13:31:13;6.87;;;1.50;;
3755;SDS011;1893;52.526;13.360;2024-02-04T13:33:39;6.23;;;1.43;;
3755;SDS011;1893;52.526;13.360;2024-02-04T13:36:05;5.50;;;2.10;;
3755;SDS011;1893;52.526;13.360;2024-02-04T13:38:34;3.87;;;1.40;;
3755;SDS011;1893;52.526;13.360;2024-02-04T13:41:00;2.67;;;1.40;;
3755;SDS011;1893;52.526;13.360;2024-02-04T13:43:26;6.83;;;1.97;;
3755;SDS011;1893;52.526;13.360;2024-02-04T13:45:52;4.97;;;1.60;;
3755;SDS011;1893;52.526;13.360;2024-02-04T13:48:18;3.57;;;1.37;;
3755;SDS011;1893;52.526;13.360;2024-02-04T13:50:45;5.60;;;1.97;;
3755;SDS011;1893;52.526;13.360;2024-02-04T13:53:11;9.03;;;1.77;;
3755;SDS011;1893;52.526;13.360;2024-02-04T13:55:36;8.60;;;1.93;;
3755;SDS011;1893;52.526;13.360;2024-02-04T13:58:03;6.97;;;2.23;;
3755;SDS011;1893;52.526;13.360;2024-02-04T14:00:28;10.63;;;1.87;;
3755;SDS011;1893;52.526;13.360;2024-02-04T14:02:54;13.80;;;2.70;;
3755;SDS011;1893;52.526;13.360;2024-02-04T14:05:20;9.50;;;2.33;;
3755;SDS011;1893;52.526;13.360;2024-02-04T14:07:45;6.13;;;2.50;;
3755;SDS011;1893;52.526;13.360;2024-02-04T14:10:11;8.13;;;1.57;;
3755;SDS011;1893;52.526;13.360;2024-02-04T14:12:39;7.67;;;2.93;;
3755;SDS011;1893;52.526;13.360;2024-02-04T14:15:06;13.87;;;1.77;;
3755;SDS011;1893;52.526;13.360;2024-02-04T14:17:32;7.53;;;1.60;;
3755;SDS011;1893;52.526;13.360;2024-02-04T14:19:58;3.97;;;2.00;;
3755;SDS011;1893;52.526;13.360;2024-02-04T14:22:23;7.73;;;2.27;;
3755;SDS011;1893;52.526;13.360;2024-02-04T14:24:49;8.50;;;2.60;;
3755;SDS011;1893;52.526;13.360;2024-02-04T14:27:15;4.90;;;1.40;;
3755;SDS011;1893;52.526;13.360;2024-02-04T14:29:41;7.23;;;2.27;;
3755;SDS011;1893;52.526;13.360;2024-02-04T14:32:07;7.90;;;1.90;;
3755;SDS011;1893;52.526;13.360;2024-02-04T14:34:33;6.13;;;1.93;;
3755;SDS011;1893;52.526;13.360;2024-02-04T14:36:59;6.93;;;1.43;;
3755;SDS011;1893;52.526;13.360;2024-02-04T14:39:25;8.23;;;2.00;;
3755;SDS011;1893;52.526;13.360;2024-02-04T14:41:52;7.63;;;1.60;;
3755;SDS011;1893;52.526;13.360;2024-02-04T14:44:19;7.53;;;2.17;;
3755;SDS011;1893;52.526;13.360;2024-02-04T14:46:45;12.53;;;3.20;;
3755;SDS011;1893;52.526;13.360;2024-02-04T14:49:11;8.17;;;2.20;;
3755;SDS011;1893;52.526;13.360;2024-02-04T14:51:40;10.80;;;1.93;;
3755;SDS011;1893;52.526;13.360;2024-02-04T14:54:09;7.67;;;1.50;;
3755;SDS011;1893;52.526;13.360;2024-02-04T14:56:38;5.80;;;1.63;;
3755;SDS011;1893;52.526;13.360;2024-02-04T14:59:04;5.83;;;1.53;;
3755;SDS011;1893;52.526;13.360;2024-02-04T15:01:31;7.80;;;1.70;;
3755;SDS011;1893;52.526;13.360;2024-02-04T15:03:57;6.20;;;1.70;;
3755;SDS011;1893;52.526;13.360;2024-02-04T15:06:22;4.43;;;1.67;;
3755;SDS011;1893;52.526;13.360;2024-02-04T15:08:48;7.30;;;2.27;;
3755;SDS011;1893;52.526;13.360;2024-02-04T15:11:14;5.27;;;1.80;;
3755;SDS011;1893;52.526;13.360;2024-02-04T15:13:39;3.83;;;1.33;;